createdAt,value
2023-03-08T00:01:17.705Z,96968.13
2023-03-08T00:03:45.461Z,96988.03
2023-03-08T00:06:16.794Z,97010.81
2023-03-08T00:08:44.129Z,97009.78
2023-03-08T00:11:12.883Z,97017.78
2023-03-08T00:13:40.340Z,97043.47
2023-03-08T00:16:13.743Z,97041.97
2023-03-08T00:18:41.767Z,97022.94
2023-03-08T00:21:13.402Z,97033.44
2023-03-08T00:23:41.459Z,97037.47
2023-03-08T00:26:09.805Z,97017.16
2023-03-08T00:28:36.816Z,96987.78
2023-03-08T00:31:10.696Z,96986.31
2023-03-08T00:33:38.003Z,97011.59
2023-03-08T00:36:06.885Z,97018.59
2023-03-08T00:38:36.571Z,97017.66
2023-03-08T00:41:04.478Z,97007.50
2023-03-08T00:43:31.892Z,97032.16
2023-03-08T00:45:59.380Z,97051.38
2023-03-08T00:48:26.719Z,97060.13
2023-03-08T00:50:54.107Z,97068.06
2023-03-08T00:53:21.495Z,97081.84
2023-03-08T00:55:57.499Z,97088.50
2023-03-08T00:58:27.407Z,97098.94
2023-03-08T01:00:54.946Z,97103.19
2023-03-08T01:03:22.236Z,97093.53
2023-03-08T01:05:53.191Z,97091.66
2023-03-08T01:08:22.451Z,97085.50
2023-03-08T01:11:00.486Z,97085.47
2023-03-08T01:13:32.924Z,97068.91
2023-03-08T01:16:00.783Z,97080.25
2023-03-08T01:18:28.708Z,97068.88
2023-03-08T01:21:02.437Z,97063.69
2023-03-08T01:23:29.902Z,97047.94
2023-03-08T01:26:07.300Z,97036.63
2023-03-08T01:28:35.395Z,97027.88
2023-03-08T01:31:06.400Z,97006.03
2023-03-08T01:33:35.327Z,97014.94
2023-03-08T01:36:12.166Z,97004.25
2023-03-08T01:38:39.330Z,96994.72
2023-03-08T01:41:08.957Z,96990.22
2023-03-08T01:43:40.246Z,96978.91
2023-03-08T01:46:23.216Z,96982.31
2023-03-08T01:49:16.445Z,96965.78
2023-03-08T01:51:58.653Z,96947.47
2023-03-08T01:54:51.753Z,96952.72
2023-03-08T01:57:36.063Z,96947.38
2023-03-08T02:00:10.198Z,96943.06
2023-03-08T02:02:43.776Z,96955.50
2023-03-08T02:05:11.755Z,96955.38
2023-03-08T02:07:38.748Z,96949.16
2023-03-08T02:10:06.661Z,96934.34
2023-03-08T02:12:34.966Z,96928.25
2023-03-08T02:15:06.261Z,96917.94
2023-03-08T02:17:37.935Z,96903.00
2023-03-08T02:20:24.651Z,96892.75
2023-03-08T02:22:53.309Z,96901.59
2023-03-08T02:25:26.748Z,96892.00
2023-03-08T02:27:54.925Z,96885.81
2023-03-08T02:30:30.692Z,96878.03
2023-03-08T02:32:57.678Z,96879.78
2023-03-08T02:35:24.995Z,96865.84
2023-03-08T02:37:52.151Z,96866.75
2023-03-08T02:40:19.396Z,96849.31
2023-03-08T02:42:46.390Z,96851.28
2023-03-08T02:45:13.538Z,96842.38
2023-03-08T02:47:40.596Z,96830.16
2023-03-08T02:50:08.741Z,96821.69
2023-03-08T02:52:35.803Z,96825.75
2023-03-08T02:55:02.912Z,96813.41
2023-03-08T02:57:29.953Z,96802.00
2023-03-08T02:59:57.053Z,96786.25
2023-03-08T03:02:24.069Z,96774.19
2023-03-08T03:04:51.065Z,96764.53
2023-03-08T03:07:18.145Z,96756.97
2023-03-08T03:09:45.123Z,96755.28
2023-03-08T03:12:12.117Z,96749.16
2023-03-08T03:14:39.162Z,96744.91
2023-03-08T03:17:06.228Z,96734.56
2023-03-08T03:19:33.276Z,96730.44
2023-03-08T03:22:00.428Z,96724.47
2023-03-08T03:24:27.455Z,96721.97
2023-03-08T03:26:54.561Z,96719.44
2023-03-08T03:29:21.979Z,96712.53
2023-03-08T03:31:49.058Z,96734.88
2023-03-08T03:34:16.189Z,96721.63
2023-03-08T03:36:43.244Z,96696.28
2023-03-08T03:39:10.303Z,96698.22
2023-03-08T03:41:37.362Z,96702.91
2023-03-08T03:44:04.828Z,96716.00
2023-03-08T03:46:31.917Z,96718.75
2023-03-08T03:48:59.218Z,96726.75
2023-03-08T03:51:26.369Z,96727.34
2023-03-08T03:53:53.402Z,96727.38
2023-03-08T03:56:23.326Z,96725.00
2023-03-08T03:58:51.648Z,96733.38
2023-03-08T04:01:21.643Z,96751.50
2023-03-08T04:03:49.494Z,96797.09
2023-03-08T04:06:26.591Z,96845.84
2023-03-08T04:08:56.791Z,96892.88
2023-03-08T04:11:27.990Z,96915.50
2023-03-08T04:13:55.939Z,96926.03
2023-03-08T04:16:29.230Z,96933.91
2023-03-08T04:18:59.781Z,96958.28
2023-03-08T04:21:27.718Z,96969.56
2023-03-08T04:23:55.984Z,96968.72
2023-03-08T04:26:24.145Z,96978.34
2023-03-08T04:28:51.472Z,96993.97
2023-03-08T04:31:21.314Z,97002.69
2023-03-08T04:33:48.949Z,97009.63
2023-03-08T04:36:17.442Z,97007.06
2023-03-08T04:38:45.783Z,97023.56
2023-03-08T04:41:13.541Z,97031.41
2023-03-08T04:43:47.676Z,97030.56
2023-03-08T04:46:16.343Z,97034.00
2023-03-08T04:48:43.682Z,97020.97
2023-03-08T04:51:13.180Z,97037.44
2023-03-08T04:53:41.772Z,97040.06
2023-03-08T04:56:09.476Z,97031.38
2023-03-08T04:58:37.847Z,97027.84
2023-03-08T05:01:18.001Z,97032.13
2023-03-08T05:03:46.221Z,97026.09
2023-03-08T05:06:16.767Z,97035.59
2023-03-08T05:08:44.322Z,97038.19
2023-03-08T05:11:18.260Z,97026.84
2023-03-08T05:13:45.424Z,97039.00
2023-03-08T05:16:12.962Z,97038.97
2023-03-08T05:18:40.085Z,97027.56
2023-03-08T05:21:13.257Z,97022.38
2023-03-08T05:23:40.330Z,97026.69
2023-03-08T05:26:09.067Z,97029.28
2023-03-08T05:28:39.359Z,97035.31
2023-03-08T05:31:19.010Z,97033.59
2023-03-08T05:33:51.125Z,97044.03
2023-03-08T05:36:19.338Z,97039.69
2023-03-08T05:38:46.632Z,97030.13
2023-03-08T05:41:16.779Z,97027.56
2023-03-08T05:43:44.187Z,97052.81
2023-03-08T05:46:17.736Z,97069.41
2023-03-08T05:48:45.330Z,97075.56
2023-03-08T05:51:15.777Z,97085.19
2023-03-08T05:53:43.517Z,97086.91
2023-03-08T05:56:14.790Z,97088.66
2023-03-08T05:58:43.673Z,97089.50
2023-03-08T06:01:21.646Z,97079.91
2023-03-08T06:03:52.378Z,97073.81
2023-03-08T06:06:24.858Z,97073.84
2023-03-08T06:08:52.478Z,97088.75
2023-03-08T06:11:20.225Z,97101.78
2023-03-08T06:13:47.353Z,97108.78
2023-03-08T06:16:15.091Z,97124.47
2023-03-08T06:18:42.993Z,97140.09
2023-03-08T06:21:15.884Z,97134.91
2023-03-08T06:23:43.628Z,97132.28
2023-03-08T06:26:11.860Z,97147.06
2023-03-08T06:28:43.252Z,97142.66
2023-03-08T06:31:16.727Z,97145.22
2023-03-08T06:33:44.067Z,97146.97
2023-03-08T06:36:20.380Z,97149.56
2023-03-08T06:38:48.761Z,97150.41
2023-03-08T06:41:18.848Z,97145.19
2023-03-08T06:43:46.201Z,97157.38
2023-03-08T06:46:19.249Z,97156.50
2023-03-08T06:48:49.696Z,97165.16
2023-03-08T06:51:17.629Z,97172.97
2023-03-08T06:53:45.487Z,97170.31
2023-03-08T06:56:15.866Z,97163.34
2023-03-08T06:58:43.809Z,97161.59
2023-03-08T07:01:11.505Z,97165.94
2023-03-08T07:03:38.667Z,97178.09
2023-03-08T07:06:09.089Z,97186.78
2023-03-08T07:08:37.840Z,97202.44
2023-03-08T07:11:07.502Z,97243.38
2023-03-08T07:13:35.241Z,97276.50
2023-03-08T07:16:11.041Z,97313.22
2023-03-08T07:18:38.755Z,97356.91
2023-03-08T07:21:06.393Z,97384.03
2023-03-08T07:23:33.727Z,97408.63
2023-03-08T07:26:04.882Z,97433.16
2023-03-08T07:28:31.974Z,97474.19
2023-03-08T07:30:59.113Z,97483.78
2023-03-08T07:33:26.407Z,97522.97
2023-03-08T07:35:53.797Z,97558.66
2023-03-08T07:38:21.090Z,97596.03
2023-03-08T07:40:56.203Z,97630.84
2023-03-08T07:43:24.208Z,97671.66
2023-03-08T07:45:51.258Z,97698.63
2023-03-08T07:48:18.390Z,97725.59
2023-03-08T07:50:45.449Z,97745.56
2023-03-08T07:53:12.491Z,97754.28
2023-03-08T07:55:39.498Z,97768.19
2023-03-08T07:58:06.775Z,97799.47
2023-03-08T08:00:33.788Z,97816.84
2023-03-08T08:03:00.882Z,97830.72
2023-03-08T08:05:27.906Z,97853.31
2023-03-08T08:07:55.915Z,97874.16
2023-03-08T08:10:25.875Z,97883.72
2023-03-08T08:12:52.834Z,97901.06
2023-03-08T08:15:19.851Z,97914.97
2023-03-08T08:17:47.143Z,97948.00
2023-03-08T08:20:14.792Z,97948.00
2023-03-08T08:22:48.291Z,97948.88
2023-03-08T08:25:15.360Z,97953.19
2023-03-08T08:27:42.352Z,97959.28
2023-03-08T08:30:11.449Z,97975.81
2023-03-08T08:32:38.739Z,97989.66
2023-03-08T08:35:08.631Z,97994.03
2023-03-08T08:37:37.430Z,97985.34
2023-03-08T08:40:08.054Z,97982.75
2023-03-08T08:42:35.208Z,97978.44
2023-03-08T08:45:02.209Z,97958.47
2023-03-08T08:47:30.153Z,97935.88
2023-03-08T08:49:57.225Z,97895.03
2023-03-08T08:52:24.352Z,97800.34
2023-03-08T08:54:53.330Z,97729.09
2023-03-08T08:57:20.312Z,97704.75
2023-03-08T08:59:47.891Z,97673.50
2023-03-08T09:02:15.160Z,97646.56
2023-03-08T09:04:42.776Z,97637.88
2023-03-08T09:07:09.815Z,97625.69
2023-03-08T09:09:36.795Z,97618.75
2023-03-08T09:12:04.264Z,97605.69
2023-03-08T09:14:31.196Z,97595.28
2023-03-08T09:16:58.289Z,97586.56
2023-03-08T09:19:25.416Z,97576.09
2023-03-08T09:21:52.504Z,97576.06
2023-03-08T09:24:19.523Z,97572.53
2023-03-08T09:26:46.934Z,97559.50
2023-03-08T09:29:13.926Z,97555.16
2023-03-08T09:31:42.702Z,97544.66
2023-03-08T09:34:11.733Z,97535.97
2023-03-08T09:36:39.919Z,97526.50
2023-03-08T09:39:09.577Z,97511.84
2023-03-08T09:41:49.901Z,97490.25
2023-03-08T09:44:55.871Z,97475.44
2023-03-08T09:48:08.493Z,97466.84
2023-03-08T09:50:52.856Z,97450.41
2023-03-08T09:53:32.898Z,97448.69
2023-03-08T09:56:20.405Z,97444.28
2023-03-08T09:59:33.563Z,97427.78
2023-03-08T10:02:21.152Z,97406.91
2023-03-08T10:05:18.820Z,97383.44
2023-03-08T10:08:01.563Z,97385.03
2023-03-08T10:10:39.126Z,97386.84
2023-03-08T10:14:09.158Z,97377.09
2023-03-08T10:16:44.693Z,97383.94
2023-03-08T10:19:39.016Z,97379.47
2023-03-08T10:22:25.392Z,97367.31
2023-03-08T10:25:24.177Z,97373.28
2023-03-08T10:27:56.317Z,97374.16
2023-03-08T10:30:37.504Z,97369.81
2023-03-08T10:33:11.734Z,97375.69
2023-03-08T10:35:53.135Z,97373.94
2023-03-08T10:38:20.246Z,97386.88
2023-03-08T10:40:47.280Z,97392.81
2023-03-08T10:43:38.455Z,97397.13
2023-03-08T10:46:22.054Z,97403.09
2023-03-08T10:48:49.801Z,97398.56
2023-03-08T10:51:24.397Z,97402.94
2023-03-08T10:53:59.716Z,97393.28
2023-03-08T10:56:40.284Z,97399.44
2023-03-08T10:59:19.735Z,97410.63
2023-03-08T11:01:55.004Z,97415.78
2023-03-08T11:04:25.191Z,97431.34
2023-03-08T11:06:52.522Z,97446.94
2023-03-08T11:09:31.882Z,97468.59
2023-03-08T11:12:00.555Z,97485.09
2023-03-08T11:14:30.150Z,97493.81
2023-03-08T11:17:23.999Z,97521.63
2023-03-08T11:20:20.228Z,97538.84
2023-03-08T11:23:21.860Z,97551.78
2023-03-08T11:26:16.735Z,97574.31
2023-03-08T11:29:05.896Z,97582.09
2023-03-08T11:31:46.122Z,97582.09
2023-03-08T11:34:41.848Z,97618.56
2023-03-08T11:37:29.976Z,97633.38
2023-03-08T11:40:22.290Z,97642.91
2023-03-08T11:43:22.998Z,97657.69
2023-03-08T11:45:52.765Z,97666.25
2023-03-08T11:48:47.511Z,97674.91
2023-03-08T11:51:22.601Z,97687.94
2023-03-08T11:54:19.678Z,97709.66
2023-03-08T11:57:09.718Z,97710.44
2023-03-08T11:59:56.926Z,97722.47
2023-03-08T12:02:30.133Z,97735.44
2023-03-08T12:05:20.737Z,97753.56
2023-03-08T12:08:26.443Z,97766.28
2023-03-08T12:11:05.674Z,97780.13
2023-03-08T12:13:39.281Z,97797.41
2023-03-08T12:16:43.645Z,97811.34
2023-03-08T12:19:13.879Z,97830.44
2023-03-08T12:22:25.682Z,97847.41
2023-03-08T12:25:16.400Z,97865.09
2023-03-08T12:28:20.978Z,97896.50
2023-03-08T12:31:27.430Z,97922.28
2023-03-08T12:33:58.399Z,98017.13
2023-03-08T12:36:41.597Z,98064.31
2023-03-08T12:39:27.249Z,98115.53
2023-03-08T12:42:10.122Z,98150.69
2023-03-08T12:44:39.142Z,98181.84
2023-03-08T12:47:12.308Z,98182.50
2023-03-08T12:49:53.735Z,98192.31
2023-03-08T12:52:20.694Z,98177.50
2023-03-08T12:55:02.806Z,98162.25
2023-03-08T12:57:42.991Z,98138.38
2023-03-08T13:00:36.327Z,98142.91
2023-03-08T13:03:12.473Z,98130.53
2023-03-08T13:05:45.351Z,98121.66
2023-03-08T13:08:16.345Z,98110.47
2023-03-08T13:10:52.080Z,98091.88
2023-03-08T13:13:43.688Z,98061.03
2023-03-08T13:16:38.494Z,98059.31
2023-03-08T13:19:14.985Z,98060.97
2023-03-08T13:22:09.028Z,98062.72
2023-03-08T13:24:41.825Z,98061.84
2023-03-08T13:27:30.354Z,98067.72
2023-03-08T13:30:14.473Z,98068.97
2023-03-08T13:32:41.704Z,98099.03
2023-03-08T13:35:16.536Z,98103.25
2023-03-08T13:37:43.835Z,98109.31
2023-03-08T13:40:22.263Z,98124.00
2023-03-08T13:43:05.626Z,98106.88
2023-03-08T13:45:32.706Z,98116.09
2023-03-08T13:48:03.870Z,98105.91
2023-03-08T13:50:35.895Z,98114.22
2023-03-08T13:53:09.553Z,98098.31
2023-03-08T13:55:43.030Z,98085.22
2023-03-08T13:58:42.309Z,98080.81
2023-03-08T14:01:19.670Z,98078.13
2023-03-08T14:03:47.391Z,98079.03
2023-03-08T14:06:33.722Z,98066.50
2023-03-08T14:09:03.877Z,98079.41
2023-03-08T14:11:38.199Z,98063.41
2023-03-08T14:14:19.206Z,98078.13
2023-03-08T14:16:47.414Z,98084.22
2023-03-08T14:19:36.177Z,98083.31
2023-03-08T14:22:38.090Z,98098.31
2023-03-08T14:25:06.298Z,98111.34
2023-03-08T14:27:38.387Z,98112.25
2023-03-08T14:30:24.782Z,98082.38
2023-03-08T14:33:19.300Z,98065.84
2023-03-08T14:35:57.789Z,98057.25
2023-03-08T14:38:29.679Z,98072.88
2023-03-08T14:41:03.896Z,98055.19
2023-03-08T14:43:31.058Z,98075.28
2023-03-08T14:46:09.402Z,98085.53
2023-03-08T14:48:38.527Z,98086.34
2023-03-08T14:51:42.480Z,98089.88
2023-03-08T14:54:36.675Z,98091.63
2023-03-08T14:57:23.312Z,98076.53
2023-03-08T14:59:50.748Z,98072.00
2023-03-08T15:02:18.377Z,98071.88
2023-03-08T15:04:46.545Z,98077.94
2023-03-08T15:07:35.448Z,98097.91
2023-03-08T15:10:06.023Z,98084.06
2023-03-08T15:12:33.296Z,98093.13
2023-03-08T15:15:00.532Z,98100.66
2023-03-08T15:17:27.981Z,98094.94
2023-03-08T15:19:56.172Z,98085.88
2023-03-08T15:22:24.120Z,98070.97
2023-03-08T15:24:52.071Z,98078.00
2023-03-08T15:27:19.644Z,98066.44
2023-03-08T15:29:46.735Z,98055.16
2023-03-08T15:32:14.033Z,98035.19
2023-03-08T15:34:50.492Z,98037.94
2023-03-08T15:37:17.689Z,98043.09
2023-03-08T15:39:45.707Z,98042.56
2023-03-08T15:42:16.535Z,98042.94
2023-03-08T15:44:44.623Z,98058.34
2023-03-08T15:47:12.018Z,98068.25
2023-03-08T15:49:39.321Z,98066.78
2023-03-08T15:52:08.580Z,98076.72
2023-03-08T15:54:36.377Z,98061.19
2023-03-08T15:57:04.116Z,98078.00
2023-03-08T15:59:31.868Z,98066.88
2023-03-08T16:01:59.491Z,98051.78
2023-03-08T16:04:27.456Z,98045.63
2023-03-08T16:06:55.333Z,98029.88
2023-03-08T16:09:24.578Z,98029.69
2023-03-08T16:11:52.489Z,98014.69
2023-03-08T16:14:19.733Z,97999.72
2023-03-08T16:16:47.164Z,97999.75
2023-03-08T16:19:14.494Z,97974.44
2023-03-08T16:21:42.124Z,97976.47
2023-03-08T16:24:11.179Z,97983.94
2023-03-08T16:26:41.851Z,97976.03
2023-03-08T16:29:09.982Z,97962.19
2023-03-08T16:31:37.331Z,97979.63
2023-03-08T16:34:06.605Z,97978.94
2023-03-08T16:36:34.103Z,97981.13
2023-03-08T16:39:01.643Z,97989.44
2023-03-08T16:41:30.298Z,97971.97
2023-03-08T16:43:59.740Z,97971.25
2023-03-08T16:46:26.961Z,97972.28
2023-03-08T16:48:56.315Z,97968.84
2023-03-08T16:51:27.264Z,97978.72
2023-03-08T16:53:56.945Z,97993.00
2023-03-08T16:56:29.699Z,97994.91
2023-03-08T16:59:02.235Z,98012.03
2023-03-08T17:01:31.509Z,98024.84
2023-03-08T17:03:59.725Z,98026.84
2023-03-08T17:06:30.719Z,98039.34
2023-03-08T17:08:59.990Z,98051.81
2023-03-08T17:11:31.650Z,98057.09
2023-03-08T17:14:04.512Z,98063.34
2023-03-08T17:16:34.540Z,98075.75
2023-03-08T17:19:04.579Z,98067.81
2023-03-08T17:21:32.594Z,98074.97
2023-03-08T17:24:00.459Z,98064.38
2023-03-08T17:26:30.393Z,98053.88
2023-03-08T17:29:38.131Z,98056.47
2023-03-08T17:32:05.882Z,98052.09
2023-03-08T17:34:33.128Z,98050.41
2023-03-08T17:37:00.363Z,98056.50
2023-03-08T17:39:27.542Z,98057.41
2023-03-08T17:41:54.553Z,98048.69
2023-03-08T17:44:21.545Z,98063.50
2023-03-08T17:46:48.519Z,98062.66
2023-03-08T17:49:23.171Z,98071.38
2023-03-08T17:51:52.324Z,98073.22
2023-03-08T17:54:20.372Z,98068.88
2023-03-08T17:56:47.378Z,98070.75
2023-03-08T17:59:16.705Z,98077.06
2023-03-08T18:01:44.550Z,98074.44
2023-03-08T18:04:11.973Z,98071.72
2023-03-08T18:06:43.534Z,98072.78
2023-03-08T18:09:15.694Z,98072.88
2023-03-08T18:11:43.051Z,98062.59
2023-03-08T18:14:13.456Z,98056.50
2023-03-08T18:16:40.886Z,98041.66
2023-03-08T18:19:08.188Z,98015.41
2023-03-08T18:21:38.821Z,97995.22
2023-03-08T18:24:07.472Z,97964.44
2023-03-08T18:26:34.480Z,97946.59
2023-03-08T18:29:01.816Z,97939.63
2023-03-08T18:31:31.059Z,97926.47
2023-03-08T18:33:58.168Z,97898.38
2023-03-08T18:36:25.372Z,97888.81
2023-03-08T18:38:52.589Z,97889.31
2023-03-08T18:41:28.021Z,97902.91
2023-03-08T18:43:56.975Z,97907.25
2023-03-08T18:46:29.730Z,97918.47
2023-03-08T18:49:01.044Z,97938.00
2023-03-08T18:51:30.115Z,97972.13
2023-03-08T18:53:58.380Z,97988.63
2023-03-08T18:57:18.242Z,97992.19
2023-03-08T18:59:45.603Z,98001.22
2023-03-08T19:02:22.060Z,97999.63
2023-03-08T19:04:49.186Z,98008.38
2023-03-08T19:07:16.287Z,98022.34
2023-03-08T19:09:44.971Z,98035.28
2023-03-08T19:12:13.115Z,98054.78
2023-03-08T19:14:40.855Z,98077.81
2023-03-08T19:17:07.980Z,98096.34
2023-03-08T19:19:35.112Z,98107.91
2023-03-08T19:22:06.047Z,98103.66
2023-03-08T19:24:38.068Z,98104.63
2023-03-08T19:27:07.653Z,98094.25
2023-03-08T19:29:36.174Z,98084.56
2023-03-08T19:32:07.819Z,98092.50
2023-03-08T19:34:38.708Z,98107.25
2023-03-08T19:37:07.466Z,98094.06
2023-03-08T19:39:39.992Z,98099.34
2023-03-08T19:42:17.832Z,98115.22
2023-03-08T19:44:50.677Z,98104.78
2023-03-08T19:47:20.275Z,98099.75
2023-03-08T19:49:51.211Z,98090.97
2023-03-08T19:52:21.526Z,98096.34
2023-03-08T19:54:49.148Z,98094.69
2023-03-08T19:57:18.894Z,98084.34
2023-03-08T19:59:46.260Z,98093.38
2023-03-08T20:02:40.023Z,98100.44
2023-03-08T20:05:07.960Z,98091.78
2023-03-08T20:07:35.602Z,98100.56
2023-03-08T20:10:15.431Z,98091.94
2023-03-08T20:12:46.656Z,98087.63
2023-03-08T20:15:13.940Z,98069.28
2023-03-08T20:17:41.292Z,98056.06
2023-03-08T20:20:14.837Z,98049.06
2023-03-08T20:22:42.419Z,98028.88
2023-03-08T20:25:13.679Z,98020.13
2023-03-08T20:27:42.413Z,98001.78
2023-03-08T20:30:11.766Z,97991.31
2023-03-08T20:32:39.077Z,97986.16
2023-03-08T20:35:08.487Z,97969.50
2023-03-08T20:37:37.942Z,97967.63
2023-03-08T20:40:09.779Z,97956.25
2023-03-08T20:42:43.702Z,97948.41
2023-03-08T20:45:13.110Z,97944.75
2023-03-08T20:47:40.876Z,97937.66
2023-03-08T20:50:08.541Z,97939.47
2023-03-08T20:52:43.206Z,97930.72
2023-03-08T20:55:11.909Z,97942.94
2023-03-08T20:57:38.998Z,97950.81
2023-03-08T21:00:09.283Z,97937.50
2023-03-08T21:02:40.175Z,97937.47
2023-03-08T21:05:08.170Z,97952.28
2023-03-08T21:07:35.402Z,97958.41
2023-03-08T21:10:02.704Z,97952.22
2023-03-08T21:12:29.726Z,97942.63
2023-03-08T21:14:59.821Z,97940.78
2023-03-08T21:17:26.957Z,97947.81
2023-03-08T21:19:54.595Z,97946.09
2023-03-08T21:22:22.095Z,97943.34
2023-03-08T21:24:49.347Z,97957.28
2023-03-08T21:27:17.504Z,97962.50
2023-03-08T21:29:44.700Z,97976.56
2023-03-08T21:32:12.506Z,97980.88
2023-03-08T21:34:40.251Z,97996.72
2023-03-08T21:37:07.713Z,97994.03
2023-03-08T21:39:34.834Z,98007.09
2023-03-08T21:42:01.909Z,97993.16
2023-03-08T21:44:31.833Z,97989.31
2023-03-08T21:46:59.232Z,97988.44
2023-03-08T21:49:29.234Z,97981.31
2023-03-08T21:51:58.425Z,97979.44
2023-03-08T21:54:28.104Z,97984.81
2023-03-08T21:56:55.304Z,97986.44
2023-03-08T21:59:26.883Z,97989.69
2023-03-08T22:01:58.427Z,97989.69
2023-03-08T22:04:26.899Z,97991.38
2023-03-08T22:07:16.293Z,97991.25
2023-03-08T22:09:55.875Z,97993.03
2023-03-08T22:12:33.481Z,97977.97
2023-03-08T22:15:19.865Z,97969.13
2023-03-08T22:18:02.611Z,97966.53
2023-03-08T22:20:38.472Z,97956.13
2023-03-08T22:23:05.620Z,97948.91
2023-03-08T22:25:32.627Z,97940.91
2023-03-08T22:27:59.608Z,97935.78
2023-03-08T22:30:26.827Z,97946.22
2023-03-08T22:32:54.826Z,97956.53
2023-03-08T22:35:22.464Z,97946.94
2023-03-08T22:37:50.067Z,97948.59
2023-03-08T22:40:18.982Z,97952.00
2023-03-08T22:42:47.208Z,97959.69
2023-03-08T22:45:14.856Z,97955.09
2023-03-08T22:47:42.127Z,97954.94
2023-03-08T22:50:10.847Z,97953.00
2023-03-08T22:52:39.052Z,97952.25
2023-03-08T22:55:06.661Z,97935.59
2023-03-08T22:57:37.623Z,97932.88
2023-03-08T23:00:14.389Z,97912.59
2023-03-08T23:02:42.983Z,97904.84
2023-03-08T23:05:16.571Z,97898.78
2023-03-08T23:07:43.663Z,97891.66
2023-03-08T23:10:12.277Z,97889.22
2023-03-08T23:12:40.042Z,97883.06
2023-03-08T23:15:08.307Z,97877.69
2023-03-08T23:17:36.160Z,97874.19
2023-03-08T23:20:05.726Z,97866.22
2023-03-08T23:22:33.024Z,97846.22
2023-03-08T23:25:00.125Z,97840.06
2023-03-08T23:27:27.264Z,97841.44
2023-03-08T23:29:54.284Z,97852.69
2023-03-08T23:32:21.488Z,97862.38
2023-03-08T23:34:48.783Z,97872.72
2023-03-08T23:37:15.760Z,97890.38
2023-03-08T23:39:42.773Z,97898.38
2023-03-08T23:42:09.880Z,97909.00
2023-03-08T23:44:38.639Z,97916.22
2023-03-08T23:47:06.174Z,97913.72
2023-03-08T23:49:33.431Z,97901.53
2023-03-08T23:52:00.544Z,97873.63
2023-03-08T23:54:27.681Z,97848.06
2023-03-08T23:56:54.735Z,97839.06
2023-03-08T23:59:24.266Z,97820.56
